createdAt,value
2018-12-18T00:02:06.161Z,101336.73
2018-12-18T00:04:35.396Z,101330.70
2018-12-18T00:07:04.647Z,101331.84
2018-12-18T00:09:33.910Z,101322.91
2018-12-18T00:12:03.179Z,101334.84
2018-12-18T00:14:32.470Z,101336.30
2018-12-18T00:17:01.781Z,101335.19
2018-12-18T00:19:30.996Z,101333.16
2018-12-18T00:22:03.001Z,101328.55
2018-12-18T00:24:32.248Z,101326.29
2018-12-18T00:27:01.422Z,101323.77
2018-12-18T00:29:30.666Z,101318.93
2018-12-18T00:31:59.899Z,101320.12
2018-12-18T00:34:29.221Z,101315.58
2018-12-18T00:36:58.432Z,101318.46
2018-12-18T00:39:27.686Z,101315.31
2018-12-18T00:41:58.193Z,101315.45
2018-12-18T00:44:27.435Z,101318.51
2018-12-18T00:46:56.690Z,101317.89
2018-12-18T00:49:25.919Z,101312.70
2018-12-18T00:51:55.093Z,101305.15
2018-12-18T00:54:24.318Z,101302.63
2018-12-18T00:56:53.620Z,101304.48
2018-12-18T00:59:22.876Z,101302.20
2018-12-18T01:02:00.033Z,101300.78
2018-12-18T01:04:29.503Z,101301.19
2018-12-18T01:06:58.732Z,101295.74
2018-12-18T01:09:27.980Z,101306.73
2018-12-18T01:11:57.142Z,101307.09
2018-12-18T01:14:26.399Z,101308.59
2018-12-18T01:16:55.661Z,101307.03
2018-12-18T01:19:24.880Z,101304.16
2018-12-18T01:21:54.121Z,101305.05
2018-12-18T01:24:23.582Z,101304.16
2018-12-18T01:26:52.845Z,101305.22
2018-12-18T01:29:22.061Z,101302.16
2018-12-18T01:31:51.268Z,101301.68
2018-12-18T01:34:20.721Z,101301.68
2018-12-18T01:36:49.902Z,101300.27
2018-12-18T01:39:19.109Z,101294.73
2018-12-18T01:41:48.384Z,101295.44
2018-12-18T01:44:17.888Z,101297.34
2018-12-18T01:46:47.108Z,101299.91
2018-12-18T01:49:16.622Z,101295.17
2018-12-18T01:51:45.838Z,101294.37
2018-12-18T01:54:15.918Z,101293.57
2018-12-18T01:56:45.181Z,101297.03
2018-12-18T01:59:15.105Z,101296.55
2018-12-18T02:01:44.348Z,101293.89
2018-12-18T02:04:13.562Z,101295.96
2018-12-18T02:06:42.823Z,101296.73
2018-12-18T02:09:12.050Z,101297.91
2018-12-18T02:11:41.325Z,101295.91
2018-12-18T02:14:10.522Z,101295.41
2018-12-18T02:16:39.758Z,101299.22
2018-12-18T02:19:10.141Z,101292.41
2018-12-18T02:21:40.906Z,101295.00
2018-12-18T02:24:10.080Z,101292.83
2018-12-18T02:26:39.309Z,101290.48
2018-12-18T02:29:08.537Z,101292.77
2018-12-18T02:31:37.826Z,101289.74
2018-12-18T02:34:13.495Z,101288.98
2018-12-18T02:36:36.205Z,101288.41
2018-12-18T02:39:07.074Z,101284.83
2018-12-18T02:41:36.313Z,101285.84
2018-12-18T02:44:05.509Z,101283.47
2018-12-18T02:46:34.736Z,101287.67
2018-12-18T02:49:03.973Z,101286.20
2018-12-18T02:51:33.325Z,101287.79
2018-12-18T02:54:02.515Z,101282.28
2018-12-18T02:56:31.710Z,101280.43
2018-12-18T02:59:00.951Z,101283.09
2018-12-18T03:01:30.175Z,101278.96
2018-12-18T03:03:59.419Z,101271.53
2018-12-18T03:06:28.666Z,101273.65
2018-12-18T03:08:57.901Z,101274.78
2018-12-18T03:11:27.052Z,101277.66
2018-12-18T03:13:56.323Z,101270.58
2018-12-18T03:16:25.553Z,101262.05
2018-12-18T03:18:54.799Z,101262.41
2018-12-18T03:21:23.996Z,101261.23
2018-12-18T03:23:53.236Z,101257.93
2018-12-18T03:26:22.465Z,101257.09
2018-12-18T03:28:51.735Z,101257.25
2018-12-18T03:31:20.948Z,101256.34
2018-12-18T03:33:50.208Z,101256.52
2018-12-18T03:36:19.360Z,101258.50
2018-12-18T03:38:48.558Z,101253.86
2018-12-18T03:41:18.026Z,101255.10
2018-12-18T03:43:47.245Z,101251.42
2018-12-18T03:46:16.472Z,101248.42
2018-12-18T03:48:45.704Z,101248.69
2018-12-18T03:51:15.531Z,101259.94
2018-12-18T03:53:44.732Z,101259.72
2018-12-18T03:56:14.990Z,101260.33
2018-12-18T03:58:44.374Z,101263.12
2018-12-18T04:01:14.175Z,101265.77
2018-12-18T04:03:43.669Z,101260.20
2018-12-18T04:06:13.547Z,101259.37
2018-12-18T04:08:42.754Z,101256.78
2018-12-18T04:11:12.587Z,101262.95
2018-12-18T04:13:41.790Z,101255.67
2018-12-18T04:16:11.002Z,101254.22
2018-12-18T04:18:40.274Z,101251.56
2018-12-18T04:21:09.512Z,101252.95
2018-12-18T04:23:38.691Z,101250.36
2018-12-18T04:26:07.932Z,101256.17
2018-12-18T04:28:37.148Z,101253.51
2018-12-18T04:31:06.356Z,101257.14
2018-12-18T04:33:35.586Z,101255.55
2018-12-18T04:36:05.018Z,101240.28
2018-12-18T04:38:34.211Z,101255.10
2018-12-18T04:41:03.445Z,101254.17
2018-12-18T04:43:32.643Z,101259.05
2018-12-18T04:46:01.815Z,101259.17
2018-12-18T04:48:30.981Z,101261.57
2018-12-18T04:51:00.240Z,101264.58
2018-12-18T04:53:29.391Z,101268.27
2018-12-18T04:55:58.634Z,101266.65
2018-12-18T04:58:27.804Z,101273.38
2018-12-18T05:00:57.087Z,101274.16
2018-12-18T05:03:26.299Z,101276.07
2018-12-18T05:05:55.490Z,101273.40
2018-12-18T05:08:24.767Z,101261.79
2018-12-18T05:10:54.000Z,101257.67
2018-12-18T05:13:23.262Z,101253.88
2018-12-18T05:15:52.435Z,101256.25
2018-12-18T05:18:21.696Z,101260.02
2018-12-18T05:20:50.929Z,101248.91
2018-12-18T05:23:20.109Z,101242.81
2018-12-18T05:25:49.342Z,101251.71
2018-12-18T05:28:18.554Z,101244.73
2018-12-18T05:30:47.759Z,101253.88
2018-12-18T05:33:17.633Z,101252.75
2018-12-18T05:35:46.851Z,101254.16
2018-12-18T05:38:16.313Z,101260.92
2018-12-18T05:40:45.477Z,101256.03
2018-12-18T05:43:15.217Z,101256.95
2018-12-18T05:45:44.492Z,101262.11
2018-12-18T05:48:13.870Z,101258.69
2018-12-18T05:50:43.089Z,101259.12
2018-12-18T05:53:12.584Z,101261.37
2018-12-18T05:55:42.105Z,101254.77
2018-12-18T05:58:13.211Z,101254.66
2018-12-18T06:00:42.480Z,101263.52
2018-12-18T06:03:11.713Z,101259.75
2018-12-18T06:05:40.989Z,101262.98
2018-12-18T06:08:10.217Z,101270.72
2018-12-18T06:10:39.443Z,101267.98
2018-12-18T06:13:08.726Z,101259.59
2018-12-18T06:15:37.955Z,101256.21
2018-12-18T06:18:07.177Z,101260.48
2018-12-18T06:20:36.375Z,101263.77
2018-12-18T06:23:05.580Z,101270.84
2018-12-18T06:25:34.782Z,101264.34
2018-12-18T06:28:04.000Z,101255.70
2018-12-18T06:30:33.248Z,101256.66
2018-12-18T06:33:02.507Z,101264.34
2018-12-18T06:35:32.733Z,101263.63
2018-12-18T06:38:03.486Z,101270.50
2018-12-18T06:40:32.725Z,101273.40
2018-12-18T06:43:01.993Z,101265.00
2018-12-18T06:45:31.229Z,101271.80
2018-12-18T06:48:00.490Z,101260.31
2018-12-18T06:50:29.769Z,101259.05
2018-12-18T06:52:58.992Z,101259.18
2018-12-18T06:55:28.219Z,101262.78
2018-12-18T06:57:57.460Z,101269.98
2018-12-18T07:00:26.763Z,101271.98
2018-12-18T07:02:55.966Z,101269.60
2018-12-18T07:05:25.291Z,101272.07
2018-12-18T07:07:57.465Z,101267.72
2018-12-18T07:10:23.709Z,101265.71
2018-12-18T07:12:52.908Z,101267.16
2018-12-18T07:15:22.171Z,101262.48
2018-12-18T07:17:51.454Z,101258.62
2018-12-18T07:20:20.636Z,101263.54
2018-12-18T07:22:49.898Z,101261.64
2018-12-18T07:25:19.121Z,101263.87
2018-12-18T07:27:48.331Z,101266.53
2018-12-18T07:30:17.667Z,101261.08
2018-12-18T07:32:47.258Z,101268.52
2018-12-18T07:35:23.022Z,101270.17
2018-12-18T07:37:45.757Z,101275.81
2018-12-18T07:40:15.040Z,101276.88
2018-12-18T07:42:44.391Z,101277.09
2018-12-18T07:45:13.619Z,101278.07
2018-12-18T07:47:42.845Z,101279.40
2018-12-18T07:50:12.715Z,101283.63
2018-12-18T07:52:41.949Z,101284.16
2018-12-18T07:55:12.819Z,101281.86
2018-12-18T07:57:42.023Z,101276.67
2018-12-18T08:00:12.285Z,101278.99
2018-12-18T08:02:41.574Z,101278.64
2018-12-18T08:05:13.130Z,101279.58
2018-12-18T08:07:42.387Z,101269.81
2018-12-18T08:10:12.237Z,101277.27
2018-12-18T08:12:41.495Z,101281.55
2018-12-18T08:15:13.003Z,101291.67
2018-12-18T08:17:42.421Z,101293.94
2018-12-18T08:20:12.410Z,101295.24
2018-12-18T08:25:52.388Z,101302.30
2018-12-18T08:28:21.706Z,101307.58
2018-12-18T08:30:51.240Z,101298.98
2018-12-18T08:33:21.545Z,101297.02
2018-12-18T08:35:50.882Z,101293.95
2018-12-18T08:38:20.084Z,101293.95
2018-12-18T08:40:52.503Z,101283.29
2018-12-18T08:43:21.797Z,101278.23
2018-12-18T08:45:53.972Z,101280.95
2018-12-18T08:48:25.449Z,101262.78
2018-12-18T08:50:56.038Z,101257.59
2018-12-18T08:53:26.263Z,101254.80
2018-12-18T08:55:55.677Z,101245.92
2018-12-18T08:58:24.906Z,101237.06
2018-12-18T09:00:54.932Z,101238.58
2018-12-18T09:03:24.164Z,101245.19
2018-12-18T09:05:53.387Z,101243.52
2018-12-18T09:08:22.643Z,101229.13
2018-12-18T09:10:51.909Z,101236.30
2018-12-18T09:13:21.353Z,101226.03
2018-12-18T09:15:57.621Z,101232.26
2018-12-18T09:18:27.055Z,101233.92
2018-12-18T09:20:56.256Z,101224.63
2018-12-18T09:23:25.505Z,101223.86
2018-12-18T09:25:54.770Z,101219.02
2018-12-18T09:28:24.038Z,101227.64
2018-12-18T09:30:53.238Z,101221.09
2018-12-18T09:33:22.509Z,101221.67
2018-12-18T09:35:51.739Z,101217.47
2018-12-18T09:38:26.280Z,101207.27
2018-12-18T09:41:00.651Z,101205.47
2018-12-18T09:43:35.165Z,101200.77
2018-12-18T09:46:04.436Z,101196.71
2018-12-18T09:48:33.703Z,101197.35
2018-12-18T09:51:02.906Z,101186.73
2018-12-18T09:53:32.125Z,101185.00
2018-12-18T09:56:01.324Z,101181.87
2018-12-18T09:58:30.516Z,101176.31
2018-12-18T10:00:59.712Z,101174.66
2018-12-18T10:03:33.512Z,101177.55
2018-12-18T10:05:58.181Z,101176.67
2018-12-18T10:08:27.466Z,101173.31
2018-12-18T10:10:56.663Z,101177.86
2018-12-18T10:13:25.910Z,101178.58
2018-12-18T10:15:55.193Z,101177.25
2018-12-18T10:18:24.381Z,101180.43
2018-12-18T10:20:53.592Z,101165.39
2018-12-18T10:23:22.892Z,101157.56
2018-12-18T10:25:52.099Z,101152.66
2018-12-18T10:28:21.428Z,101144.44
2018-12-18T10:30:50.612Z,101136.39
2018-12-18T10:33:19.881Z,101134.16
2018-12-18T10:35:49.086Z,101123.24
2018-12-18T10:38:18.338Z,101116.50
2018-12-18T10:40:47.623Z,101108.48
2018-12-18T10:43:16.851Z,101114.81
2018-12-18T10:45:46.070Z,101108.41
2018-12-18T10:48:15.296Z,101099.66
2018-12-18T10:50:44.573Z,101106.72
2018-12-18T10:53:13.779Z,101103.56
2018-12-18T10:55:43.033Z,101100.23
2018-12-18T10:58:12.276Z,101101.53
2018-12-18T11:00:47.611Z,101101.04
2018-12-18T11:03:17.908Z,101087.27
2018-12-18T11:05:48.082Z,101079.12
2018-12-18T11:08:18.526Z,101073.56
2018-12-18T11:10:48.841Z,101069.97
2018-12-18T11:13:19.675Z,101069.92
2018-12-18T11:15:50.715Z,101068.97
2018-12-18T11:18:21.078Z,101065.69
2018-12-18T11:20:51.672Z,101066.48
2018-12-18T11:23:20.913Z,101059.67
2018-12-18T11:25:50.194Z,101062.25
2018-12-18T11:28:19.379Z,101056.00
2018-12-18T11:30:48.589Z,101046.61
2018-12-18T11:33:17.773Z,101040.67
2018-12-18T11:35:47.054Z,101037.63
2018-12-18T11:38:16.278Z,101036.91
2018-12-18T11:40:45.662Z,101030.60
2018-12-18T11:43:14.868Z,101021.83
2018-12-18T11:45:44.118Z,101023.22
2018-12-18T11:48:13.331Z,101015.39
2018-12-18T11:50:42.536Z,101004.44
2018-12-18T11:53:11.815Z,100995.89
2018-12-18T11:55:41.054Z,101004.47
2018-12-18T11:58:10.440Z,101005.47
2018-12-18T12:00:39.745Z,101002.42
2018-12-18T12:03:09.268Z,100996.78
2018-12-18T12:05:38.534Z,100997.52
2018-12-18T12:08:08.102Z,100985.72
2018-12-18T12:10:37.361Z,100972.37
2018-12-18T12:13:06.626Z,100977.83
2018-12-18T12:15:35.846Z,100971.27
2018-12-18T12:18:05.077Z,100971.27
2018-12-18T12:20:34.345Z,100969.30
2018-12-18T12:23:03.553Z,100966.47
2018-12-18T12:25:32.839Z,100963.08
2018-12-18T12:28:06.305Z,100965.30
2018-12-18T12:30:35.850Z,100959.47
2018-12-18T12:33:05.106Z,100954.77
2018-12-18T12:35:34.301Z,100949.15
2018-12-18T12:38:03.524Z,100946.13
2018-12-18T12:40:32.785Z,100948.25
2018-12-18T12:43:02.061Z,100938.86
2018-12-18T12:45:31.314Z,100934.55
2018-12-18T12:48:00.769Z,100926.54
2018-12-18T12:50:30.083Z,100923.91
2018-12-18T12:52:59.502Z,100920.25
2018-12-18T12:55:28.705Z,100912.78
2018-12-18T12:57:58.001Z,100916.44
2018-12-18T13:00:27.301Z,100911.54
2018-12-18T13:02:56.568Z,100910.27
2018-12-18T13:05:25.902Z,100909.72
2018-12-18T13:07:56.223Z,100907.30
2018-12-18T13:10:24.472Z,100906.86
2018-12-18T13:12:53.773Z,100905.81
2018-12-18T13:15:23.028Z,100902.80
2018-12-18T13:17:52.271Z,100900.14
2018-12-18T13:20:21.509Z,100893.94
2018-12-18T13:22:50.747Z,100889.56
2018-12-18T13:25:20.890Z,100880.61
2018-12-18T13:27:50.155Z,100875.25
2018-12-18T13:30:19.354Z,100871.59
2018-12-18T13:32:48.591Z,100863.67
2018-12-18T13:35:17.791Z,100869.50
2018-12-18T13:37:47.043Z,100863.02
2018-12-18T13:40:16.291Z,100861.45
2018-12-18T13:42:45.519Z,100855.20
2018-12-18T13:45:14.825Z,100847.36
2018-12-18T13:47:44.088Z,100853.42
2018-12-18T13:50:13.311Z,100844.84
2018-12-18T13:52:42.514Z,100841.34
2018-12-18T13:55:12.185Z,100838.94
2018-12-18T13:57:41.446Z,100839.52
2018-12-18T14:00:11.429Z,100838.67
2018-12-18T14:02:40.690Z,100831.98
2018-12-18T14:05:10.611Z,100824.64
2018-12-18T14:07:39.845Z,100820.42
2018-12-18T14:10:09.418Z,100818.00
2018-12-18T14:12:38.736Z,100812.92
2018-12-18T14:15:08.167Z,100799.59
2018-12-18T14:17:37.426Z,100795.81
2018-12-18T14:20:06.899Z,100800.16
2018-12-18T14:22:36.113Z,100800.07
2018-12-18T14:25:05.429Z,100802.05
2018-12-18T14:27:34.714Z,100799.55
2018-12-18T14:30:04.067Z,100795.49
2018-12-18T14:32:33.290Z,100798.98
2018-12-18T14:35:02.467Z,100786.81
2018-12-18T14:37:31.691Z,100783.47
2018-12-18T14:40:00.854Z,100771.30
2018-12-18T14:42:30.062Z,100773.13
2018-12-18T14:44:59.301Z,100775.08
2018-12-18T14:47:28.589Z,100764.39
2018-12-18T14:49:58.234Z,100765.70
2018-12-18T14:52:27.012Z,100762.81
2018-12-18T14:54:56.277Z,100750.46
2018-12-18T14:57:25.474Z,100741.95
2018-12-18T14:59:54.744Z,100736.87
2018-12-18T15:02:23.938Z,100732.47
2018-12-18T15:04:53.150Z,100734.61
2018-12-18T15:07:22.400Z,100735.08
2018-12-18T15:09:51.667Z,100735.50
2018-12-18T15:12:20.888Z,100736.31
2018-12-18T15:14:50.104Z,100741.38
2018-12-18T15:17:19.366Z,100738.98
2018-12-18T15:19:48.867Z,100741.95
2018-12-18T15:22:18.051Z,100739.45
2018-12-18T15:24:47.309Z,100734.59
2018-12-18T15:27:16.615Z,100717.75
2018-12-18T15:29:45.866Z,100727.55
2018-12-18T15:32:15.071Z,100722.27
2018-12-18T15:34:44.329Z,100726.27
2018-12-18T15:37:13.641Z,100723.41
2018-12-18T15:39:42.889Z,100722.31
2018-12-18T15:42:12.068Z,100728.14
2018-12-18T15:44:41.325Z,100725.59
2018-12-18T15:47:10.795Z,100717.45
2018-12-18T15:49:40.062Z,100718.75
2018-12-18T15:52:09.683Z,100714.75
2018-12-18T15:54:39.692Z,100709.44
2018-12-18T15:57:09.255Z,100705.37
2018-12-18T15:59:38.433Z,100703.86
2018-12-18T16:02:07.608Z,100702.83
2018-12-18T16:04:36.860Z,100703.48
2018-12-18T16:07:06.081Z,100706.75
2018-12-18T16:09:35.419Z,100712.48
2018-12-18T16:12:04.661Z,100704.13
2018-12-18T16:14:33.866Z,100693.41
2018-12-18T16:17:03.120Z,100696.22
2018-12-18T16:19:32.452Z,100700.78
2018-12-18T16:22:01.724Z,100701.47
2018-12-18T16:24:31.079Z,100697.06
2018-12-18T16:27:00.277Z,100698.69
2018-12-18T16:29:29.523Z,100693.33
2018-12-18T16:35:09.886Z,100694.70
2018-12-18T16:37:38.303Z,100689.14
2018-12-18T16:40:06.888Z,100683.90
2018-12-18T16:42:35.229Z,100685.18
2018-12-18T16:45:03.707Z,100687.56
2018-12-18T16:47:32.115Z,100682.84
2018-12-18T16:50:00.411Z,100674.16
2018-12-18T16:52:28.754Z,100681.71
2018-12-18T16:54:57.068Z,100678.39
2018-12-18T16:57:25.437Z,100678.53
2018-12-18T16:59:53.789Z,100670.46
2018-12-18T17:02:22.314Z,100672.22
2018-12-18T17:04:50.635Z,100677.75
2018-12-18T17:07:18.996Z,100673.05
2018-12-18T17:09:47.341Z,100681.17
2018-12-18T17:12:15.699Z,100672.91
2018-12-18T17:14:44.090Z,100673.76
2018-12-18T17:17:12.645Z,100668.94
2018-12-18T17:19:40.958Z,100670.77
2018-12-18T17:22:09.339Z,100663.34
2018-12-18T17:24:37.757Z,100668.91
2018-12-18T17:27:06.091Z,100670.48
2018-12-18T17:29:34.410Z,100670.00
2018-12-18T17:32:02.755Z,100676.80
2018-12-18T17:34:31.142Z,100678.35
2018-12-18T17:37:00.458Z,100679.80
2018-12-18T17:39:28.803Z,100680.09
2018-12-18T17:41:57.143Z,100685.05
2018-12-18T17:44:25.461Z,100683.33
2018-12-18T17:46:53.828Z,100682.34
2018-12-18T17:49:22.137Z,100684.36
2018-12-18T17:51:50.490Z,100680.93
2018-12-18T17:54:18.835Z,100669.91
2018-12-18T17:56:47.237Z,100670.31
2018-12-18T17:59:15.593Z,100674.59
2018-12-18T18:01:44.089Z,100669.72
2018-12-18T18:04:12.408Z,100665.39
2018-12-18T18:06:40.797Z,100674.68
2018-12-18T18:09:09.236Z,100674.39
2018-12-18T18:11:37.555Z,100679.55
2018-12-18T18:14:05.926Z,100680.45
2018-12-18T18:16:34.265Z,100682.27
2018-12-18T18:19:02.621Z,100689.19
2018-12-18T18:21:30.966Z,100691.78
2018-12-18T18:26:36.628Z,100672.91
2018-12-18T18:29:04.973Z,100662.64
2018-12-18T18:31:33.330Z,100654.77
2018-12-18T18:34:01.724Z,100651.13
2018-12-18T18:36:30.082Z,100647.64
2018-12-18T18:38:58.390Z,100638.55
2018-12-18T18:41:26.770Z,100633.25
2018-12-18T18:43:55.122Z,100624.59
2018-12-18T18:46:23.452Z,100633.87
2018-12-18T18:48:51.882Z,100622.97
2018-12-18T18:51:20.537Z,100614.23
2018-12-18T18:53:49.695Z,100597.62
2018-12-18T18:56:18.096Z,100599.09
2018-12-18T18:58:46.441Z,100595.75
2018-12-18T19:01:15.197Z,100584.44
2018-12-18T19:03:43.554Z,100576.54
2018-12-18T19:06:12.042Z,100575.44
2018-12-18T19:08:40.441Z,100577.52
2018-12-18T19:11:08.814Z,100572.94
2018-12-18T19:13:37.184Z,100570.13
2018-12-18T19:16:05.533Z,100561.39
2018-12-18T19:18:33.934Z,100558.94
2018-12-18T19:21:02.229Z,100551.77
2018-12-18T19:23:30.599Z,100550.23
2018-12-18T19:25:58.942Z,100548.95
2018-12-18T19:28:27.255Z,100539.48
2018-12-18T19:30:55.637Z,100536.05
2018-12-18T19:33:23.985Z,100539.48
2018-12-18T19:35:52.796Z,100545.34
2018-12-18T19:38:21.344Z,100538.45
2018-12-18T19:40:49.721Z,100533.05
2018-12-18T19:43:18.071Z,100529.31
2018-12-18T19:45:46.591Z,100528.19
2018-12-18T19:48:14.993Z,100522.30
2018-12-18T19:50:43.315Z,100516.94
2018-12-18T19:53:11.657Z,100518.41
2018-12-18T19:55:40.084Z,100519.30
2018-12-18T19:58:08.428Z,100524.46
2018-12-18T20:00:36.788Z,100519.88
2018-12-18T20:03:05.998Z,100526.52
2018-12-18T20:05:34.321Z,100535.10
2018-12-18T20:08:02.725Z,100532.80
2018-12-18T20:10:31.055Z,100535.70
2018-12-18T20:13:01.334Z,100539.48
2018-12-18T20:15:29.681Z,100554.84
2018-12-18T20:17:58.013Z,100562.70
2018-12-18T20:20:27.182Z,100569.95
2018-12-18T20:22:55.530Z,100557.33
2018-12-18T20:25:23.869Z,100567.42
2018-12-18T20:27:52.227Z,100559.13
2018-12-18T20:30:20.588Z,100557.73
2018-12-18T20:32:48.937Z,100557.98
2018-12-18T20:35:17.606Z,100548.30
2018-12-18T20:37:46.066Z,100541.86
2018-12-18T20:40:16.248Z,100551.41
2018-12-18T20:42:44.649Z,100539.63
2018-12-18T20:45:13.478Z,100542.63
2018-12-18T20:47:41.807Z,100536.00
2018-12-18T20:50:10.172Z,100518.27
2018-12-18T20:52:38.539Z,100510.73
2018-12-18T20:55:07.021Z,100510.36
2018-12-18T20:57:35.419Z,100515.06
2018-12-18T21:00:06.020Z,100518.69
2018-12-18T21:02:34.531Z,100517.47
2018-12-18T21:05:04.340Z,100514.41
2018-12-18T21:07:32.715Z,100508.20
2018-12-18T21:10:01.043Z,100505.41
2018-12-18T21:12:29.395Z,100509.14
2018-12-18T21:15:00.683Z,100505.24
2018-12-18T21:17:28.146Z,100507.92
2018-12-18T21:19:56.484Z,100507.92
2018-12-18T21:22:25.508Z,100501.94
2018-12-18T21:24:53.842Z,100497.27
2018-12-18T21:27:22.177Z,100490.30
2018-12-18T21:29:50.515Z,100494.65
2018-12-18T21:32:18.865Z,100487.47
2018-12-18T21:34:47.219Z,100486.36
2018-12-18T21:37:15.871Z,100486.29
2018-12-18T21:39:44.237Z,100486.98
2018-12-18T21:42:12.613Z,100486.16
2018-12-18T21:44:41.016Z,100483.71
2018-12-18T21:47:09.359Z,100483.22
2018-12-18T21:49:37.709Z,100489.25
2018-12-18T21:52:06.078Z,100478.00
2018-12-18T21:54:34.631Z,100478.20
2018-12-18T21:57:03.134Z,100462.67
2018-12-18T21:59:31.675Z,100455.50
2018-12-18T22:02:00.313Z,100454.21
2018-12-18T22:04:28.659Z,100452.89
2018-12-18T22:06:57.856Z,100442.26
2018-12-18T22:09:26.230Z,100434.59
2018-12-18T22:11:54.617Z,100432.55
2018-12-18T22:14:23.475Z,100433.97
2018-12-18T22:16:51.808Z,100425.19
2018-12-18T22:19:20.296Z,100420.53
2018-12-18T22:21:48.726Z,100409.59
2018-12-18T22:24:17.213Z,100405.41
2018-12-18T22:26:46.201Z,100404.71
2018-12-18T22:29:15.021Z,100402.06
2018-12-18T22:31:43.508Z,100401.78
2018-12-18T22:34:11.902Z,100394.95
2018-12-18T22:36:40.230Z,100400.39
2018-12-18T22:39:09.735Z,100400.53
2018-12-18T22:41:38.100Z,100402.90
2018-12-18T22:44:06.592Z,100399.91
2018-12-18T22:46:34.937Z,100401.23
2018-12-18T22:49:03.292Z,100402.94
2018-12-18T22:51:31.657Z,100400.88
2018-12-18T22:54:00.043Z,100385.63
2018-12-18T22:56:28.396Z,100390.84
2018-12-18T22:58:56.758Z,100383.53
2018-12-18T23:01:29.450Z,100385.48
2018-12-18T23:03:59.262Z,100388.52
2018-12-18T23:06:27.641Z,100372.78
2018-12-18T23:08:55.980Z,100364.35
2018-12-18T23:11:24.318Z,100369.02
2018-12-18T23:13:52.648Z,100367.58
2018-12-18T23:16:20.998Z,100363.72
2018-12-18T23:18:49.325Z,100362.68
2018-12-18T23:21:17.700Z,100359.69
2018-12-18T23:23:46.025Z,100368.05
2018-12-18T23:26:14.690Z,100358.16
2018-12-18T23:28:43.036Z,100354.58
2018-12-18T23:31:11.409Z,100347.12
2018-12-18T23:33:39.751Z,100347.20
2018-12-18T23:36:08.494Z,100341.07
2018-12-18T23:38:37.008Z,100347.27
2018-12-18T23:41:05.453Z,100352.35
2018-12-18T23:43:33.793Z,100352.98
2018-12-18T23:46:02.172Z,100359.25
2018-12-18T23:48:30.713Z,100361.54
2018-12-18T23:50:59.057Z,100357.81
2018-12-18T23:53:27.554Z,100357.04
2018-12-18T23:55:56.093Z,100352.44
2018-12-18T23:58:25.041Z,100352.58
